createdAt,value
2019-05-29T00:04:40.695Z,16.80
2019-05-29T00:09:44.922Z,16.80
2019-05-29T00:14:49.259Z,16.90
2019-05-29T00:19:53.695Z,17.00
2019-05-29T00:24:57.626Z,16.70
2019-05-29T00:30:01.969Z,16.80
2019-05-29T00:35:06.525Z,16.80
2019-05-29T00:40:10.915Z,16.70
2019-05-29T00:45:15.633Z,16.90
2019-05-29T00:50:19.910Z,17.00
2019-05-29T00:55:23.846Z,16.40
2019-05-29T01:00:28.022Z,16.70
2019-05-29T01:05:31.962Z,16.60
2019-05-29T01:10:36.555Z,16.60
2019-05-29T01:15:40.583Z,16.40
2019-05-29T01:20:44.719Z,16.70
2019-05-29T01:25:49.406Z,16.60
2019-05-29T01:30:53.848Z,16.60
2019-05-29T01:35:58.127Z,16.50
2019-05-29T01:41:02.326Z,16.40
2019-05-29T01:46:06.698Z,16.60
2019-05-29T01:51:10.927Z,16.30
2019-05-29T01:56:15.557Z,16.10
2019-05-29T02:01:20.113Z,16.20
2019-05-29T02:06:24.425Z,16.40
2019-05-29T02:11:32.131Z,16.10
2019-05-29T02:16:35.410Z,16.10
2019-05-29T02:21:39.718Z,16.00
2019-05-29T02:26:44.155Z,16.00
2019-05-29T02:31:48.544Z,16.00
2019-05-29T02:36:52.838Z,16.20
2019-05-29T02:41:56.884Z,16.10
2019-05-29T02:47:00.920Z,16.10
2019-05-29T02:52:05.930Z,16.10
2019-05-29T02:57:10.264Z,15.80
2019-05-29T03:02:14.680Z,15.80
2019-05-29T03:07:18.652Z,15.60
2019-05-29T03:12:22.993Z,15.60
2019-05-29T03:17:27.919Z,16.00
2019-05-29T03:22:34.814Z,15.60
2019-05-29T03:27:38.736Z,15.90
2019-05-29T03:32:47.724Z,15.70
2019-05-29T03:37:48.714Z,15.50
2019-05-29T03:42:53.086Z,15.60
2019-05-29T03:47:57.099Z,15.50
2019-05-29T03:53:01.647Z,15.40
2019-05-29T03:58:06.306Z,15.40
2019-05-29T04:03:10.948Z,15.40
2019-05-29T04:08:15.594Z,15.40
2019-05-29T04:13:19.816Z,15.40
2019-05-29T04:18:25.284Z,15.40
2019-05-29T04:23:34.143Z,15.40
2019-05-29T04:28:39.139Z,15.60
2019-05-29T04:33:44.036Z,15.40
2019-05-29T04:38:49.500Z,15.40
2019-05-29T04:43:57.009Z,15.60
2019-05-29T04:49:00.278Z,15.30
2019-05-29T04:54:50.429Z,15.40
2019-05-29T04:59:54.798Z,15.40
2019-05-29T05:04:58.762Z,15.40
2019-05-29T05:10:03.415Z,15.40
2019-05-29T05:15:07.721Z,15.00
2019-05-29T05:20:11.766Z,15.40
2019-05-29T05:25:15.814Z,15.50
2019-05-29T05:30:19.863Z,15.50
2019-05-29T05:35:23.860Z,15.50
2019-05-29T05:40:28.279Z,15.40
2019-05-29T05:45:33.003Z,15.50
2019-05-29T05:50:37.817Z,15.50
2019-05-29T05:55:42.190Z,15.40
2019-05-29T06:00:46.681Z,15.40
2019-05-29T06:05:51.021Z,15.50
2019-05-29T06:10:55.742Z,15.80
2019-05-29T06:16:00.480Z,15.50
2019-05-29T06:21:04.555Z,15.60
2019-05-29T06:26:09.683Z,15.50
2019-05-29T06:31:13.742Z,15.50
2019-05-29T06:36:17.999Z,15.70
2019-05-29T06:41:22.051Z,15.70
2019-05-29T06:46:26.723Z,15.80
2019-05-29T06:51:30.767Z,15.90
2019-05-29T06:56:35.535Z,16.20
2019-05-29T07:01:39.703Z,15.80
2019-05-29T07:06:44.816Z,16.30
2019-05-29T07:11:49.265Z,16.00
2019-05-29T07:16:56.253Z,15.80
2019-05-29T07:21:59.736Z,16.00
2019-05-29T07:27:04.176Z,16.00
2019-05-29T07:32:08.427Z,16.20
2019-05-29T07:37:12.503Z,16.40
2019-05-29T07:42:16.463Z,16.50
2019-05-29T07:47:20.920Z,16.50
2019-05-29T07:52:24.987Z,16.50
2019-05-29T07:57:29.751Z,16.40
2019-05-29T08:02:34.115Z,16.80
2019-05-29T08:07:39.421Z,16.80
2019-05-29T08:12:49.989Z,16.90
2019-05-29T08:17:50.239Z,17.20
2019-05-29T08:22:54.734Z,17.30
2019-05-29T08:27:58.815Z,17.30
2019-05-29T08:33:03.929Z,17.40
2019-05-29T08:38:08.575Z,17.80
2019-05-29T08:43:12.982Z,18.30
2019-05-29T08:48:17.673Z,19.10
2019-05-29T08:53:21.983Z,19.60
2019-05-29T08:58:26.284Z,19.60
2019-05-29T09:03:30.302Z,19.90
2019-05-29T09:08:34.692Z,19.40
2019-05-29T09:13:39.003Z,19.00
2019-05-29T09:18:43.365Z,19.20
2019-05-29T09:23:47.417Z,19.00
2019-05-29T09:28:52.036Z,19.20
2019-05-29T09:33:56.365Z,19.00
2019-05-29T09:39:00.571Z,19.20
2019-05-29T09:44:04.655Z,19.40
2019-05-29T09:49:08.999Z,19.10
2019-05-29T09:54:13.344Z,19.10
2019-05-29T09:59:17.866Z,19.50
2019-05-29T10:04:22.203Z,19.40
2019-05-29T10:09:26.255Z,19.80
2019-05-29T10:14:30.590Z,19.80
2019-05-29T10:19:34.654Z,19.70
2019-05-29T10:24:38.632Z,19.80
2019-05-29T10:29:42.873Z,20.00
2019-05-29T10:34:48.474Z,19.90
2019-05-29T10:39:53.360Z,19.90
2019-05-29T10:44:57.386Z,20.00
2019-05-29T10:50:01.479Z,19.60
2019-05-29T10:55:06.195Z,20.00
2019-05-29T11:00:10.483Z,20.20
2019-05-29T11:05:15.029Z,20.20
2019-05-29T11:10:19.686Z,20.10
2019-05-29T11:15:23.747Z,20.20
2019-05-29T11:20:28.615Z,20.50
2019-05-29T11:25:32.746Z,20.40
2019-05-29T11:30:37.400Z,20.40
2019-05-29T11:35:57.197Z,20.50
2019-05-29T11:40:48.347Z,20.60
2019-05-29T11:45:53.258Z,20.70
2019-05-29T11:50:58.287Z,20.80
2019-05-29T11:56:02.938Z,20.40
2019-05-29T12:01:07.531Z,20.80
2019-05-29T12:06:11.605Z,20.70
2019-05-29T12:11:15.867Z,20.70
2019-05-29T12:16:20.264Z,20.90
2019-05-29T12:21:24.271Z,20.60
2019-05-29T12:26:28.325Z,20.30
2019-05-29T12:31:32.399Z,20.30
2019-05-29T12:36:37.155Z,20.20
2019-05-29T12:41:41.506Z,20.70
2019-05-29T12:46:46.281Z,20.30
2019-05-29T12:51:50.910Z,20.30
2019-05-29T12:56:55.773Z,20.20
2019-05-29T13:02:00.594Z,20.00
2019-05-29T13:07:05.155Z,20.40
2019-05-29T13:12:09.771Z,20.50
2019-05-29T13:17:14.467Z,20.20
2019-05-29T13:22:18.869Z,20.60
2019-05-29T13:27:22.906Z,20.60
2019-05-29T13:32:27.920Z,20.60
2019-05-29T13:37:32.156Z,20.60
2019-05-29T13:42:36.832Z,20.60
2019-05-29T13:47:41.204Z,20.80
2019-05-29T13:52:46.175Z,20.90
2019-05-29T13:57:50.590Z,20.90
2019-05-29T14:02:55.388Z,20.80
2019-05-29T14:08:00.598Z,21.00
2019-05-29T14:13:05.273Z,20.80
2019-05-29T14:18:09.678Z,20.90
2019-05-29T14:23:14.174Z,21.00
2019-05-29T14:28:18.703Z,21.00
2019-05-29T14:33:22.759Z,21.00
2019-05-29T14:38:27.385Z,20.80
2019-05-29T14:43:32.016Z,21.00
2019-05-29T14:48:36.943Z,20.90
2019-05-29T14:53:41.308Z,21.00
2019-05-29T14:58:45.653Z,20.90
2019-05-29T15:03:49.752Z,21.20
2019-05-29T15:08:54.175Z,21.00
2019-05-29T15:13:59.130Z,21.00
2019-05-29T15:19:04.922Z,20.80
2019-05-29T15:24:09.514Z,21.10
2019-05-29T15:29:16.331Z,21.20
2019-05-29T15:34:19.848Z,21.20
2019-05-29T15:39:24.259Z,21.00
2019-05-29T15:44:30.246Z,21.00
2019-05-29T15:49:34.648Z,21.20
2019-05-29T15:54:38.664Z,21.20
2019-05-29T15:59:43.498Z,21.20
2019-05-29T16:04:47.934Z,21.00
2019-05-29T16:09:52.690Z,21.10
2019-05-29T16:14:57.047Z,21.00
2019-05-29T16:20:01.441Z,21.10
2019-05-29T16:25:06.521Z,21.10
2019-05-29T16:30:11.639Z,21.50
2019-05-29T16:35:17.191Z,20.90
2019-05-29T16:40:21.957Z,21.10
2019-05-29T16:45:26.424Z,21.10
2019-05-29T16:50:30.765Z,21.10
2019-05-29T16:55:35.605Z,20.90
2019-05-29T17:00:40.001Z,21.30
2019-05-29T17:05:44.380Z,21.10
2019-05-29T17:10:48.829Z,21.10
2019-05-29T17:15:53.178Z,21.20
2019-05-29T17:20:57.460Z,21.10
2019-05-29T17:26:10.501Z,21.20
2019-05-29T17:31:08.325Z,21.40
2019-05-29T17:36:12.587Z,21.10
2019-05-29T17:41:17.343Z,21.40
2019-05-29T17:46:21.958Z,21.30
2019-05-29T17:51:26.103Z,21.60
2019-05-29T17:56:36.771Z,21.20
2019-05-29T18:01:36.425Z,21.50
2019-05-29T18:06:40.548Z,21.40
2019-05-29T18:11:47.505Z,21.40
2019-05-29T18:16:51.585Z,21.50
2019-05-29T18:21:55.692Z,21.10
2019-05-29T18:26:59.772Z,21.60
2019-05-29T18:32:04.147Z,21.20
2019-05-29T18:37:08.162Z,21.00
2019-05-29T18:42:12.911Z,20.80
2019-05-29T18:47:16.990Z,21.30
2019-05-29T18:52:21.795Z,20.80
2019-05-29T18:57:26.959Z,20.70
2019-05-29T19:02:31.657Z,21.00
2019-05-29T19:07:35.841Z,21.00
2019-05-29T19:12:39.934Z,20.80
2019-05-29T19:17:44.699Z,20.80
2019-05-29T19:22:48.757Z,20.70
2019-05-29T19:27:53.876Z,20.70
2019-05-29T19:32:58.490Z,20.70
2019-05-29T19:38:02.851Z,20.70
2019-05-29T19:43:07.652Z,20.40
2019-05-29T19:48:11.732Z,20.50
2019-05-29T19:53:15.798Z,20.50
2019-05-29T19:58:20.515Z,20.40
2019-05-29T20:03:26.307Z,20.30
2019-05-29T20:08:33.178Z,20.30
2019-05-29T20:13:36.531Z,20.20
2019-05-29T20:18:40.599Z,20.40
2019-05-29T20:23:45.415Z,20.10
2019-05-29T20:28:50.116Z,20.00
2019-05-29T20:33:54.551Z,19.70
2019-05-29T20:38:59.320Z,19.90
2019-05-29T20:44:03.863Z,20.00
2019-05-29T20:49:08.278Z,19.80
2019-05-29T20:54:12.395Z,19.60
2019-05-29T20:59:17.387Z,19.40
2019-05-29T21:04:22.338Z,19.20
2019-05-29T21:09:27.307Z,19.40
2019-05-29T21:14:31.714Z,19.50
2019-05-29T21:19:36.425Z,19.10
2019-05-29T21:24:46.313Z,18.80
2019-05-29T21:29:48.287Z,19.00
2019-05-29T21:34:52.350Z,19.00
2019-05-29T21:39:57.169Z,18.70
2019-05-29T21:45:01.239Z,19.00
2019-05-29T21:50:05.827Z,18.60
2019-05-29T21:55:10.277Z,18.60
2019-05-29T22:00:19.789Z,18.60
2019-05-29T22:05:24.267Z,18.80
2019-05-29T22:10:28.494Z,18.40
2019-05-29T22:15:32.543Z,18.50
2019-05-29T22:20:37.592Z,18.50
2019-05-29T22:25:41.930Z,18.20
2019-05-29T22:30:46.302Z,18.20
2019-05-29T22:35:52.712Z,18.20
2019-05-29T22:40:57.716Z,18.10
2019-05-29T22:46:02.841Z,18.10
2019-05-29T22:51:06.919Z,18.20
2019-05-29T22:56:11.270Z,17.80
2019-05-29T23:01:15.323Z,17.90
2019-05-29T23:06:19.312Z,18.20
2019-05-29T23:11:23.828Z,18.10
2019-05-29T23:16:28.179Z,18.00
2019-05-29T23:21:32.487Z,17.70
2019-05-29T23:26:36.534Z,18.00
2019-05-29T23:31:41.100Z,17.60
2019-05-29T23:36:45.435Z,18.00
2019-05-29T23:41:49.802Z,18.20
2019-05-29T23:46:53.795Z,18.10
2019-05-29T23:51:59.605Z,17.80
2019-05-29T23:57:04.263Z,17.80
